sensor_id;sensor_type;location;lat;lon;timestamp;temperature;humidity
1994;DHT22;998;49.906;10.908;2023-05-10T00:00:09;18.20;79.20
1994;DHT22;998;49.906;10.908;2023-05-10T00:02:38;18.20;79.70
1994;DHT22;998;49.906;10.908;2023-05-10T00:05:07;18.10;80.20
1994;DHT22;998;49.906;10.908;2023-05-10T00:07:35;18.00;80.80
1994;DHT22;998;49.906;10.908;2023-05-10T00:10:02;17.90;81.30
1994;DHT22;998;49.906;10.908;2023-05-10T00:12:30;17.90;82.00
1994;DHT22;998;49.906;10.908;2023-05-10T00:14:57;17.90;82.30
1994;DHT22;998;49.906;10.908;2023-05-10T00:17:25;17.90;82.90
1994;DHT22;998;49.906;10.908;2023-05-10T00:19:52;17.90;83.50
1994;DHT22;998;49.906;10.908;2023-05-10T00:22:21;17.90;84.00
1994;DHT22;998;49.906;10.908;2023-05-10T00:24:49;17.80;84.70
1994;DHT22;998;49.906;10.908;2023-05-10T00:27:16;18.00;85.00
1994;DHT22;998;49.906;10.908;2023-05-10T00:29:43;17.80;85.90
1994;DHT22;998;49.906;10.908;2023-05-10T00:32:11;17.90;85.50
1994;DHT22;998;49.906;10.908;2023-05-10T00:34:39;17.90;86.00
1994;DHT22;998;49.906;10.908;2023-05-10T00:37:07;17.90;87.30
1994;DHT22;998;49.906;10.908;2023-05-10T00:39:36;17.80;87.60
1994;DHT22;998;49.906;10.908;2023-05-10T00:42:03;17.90;88.70
1994;DHT22;998;49.906;10.908;2023-05-10T00:44:31;17.90;90.20
1994;DHT22;998;49.906;10.908;2023-05-10T00:46:59;18.00;90.90
1994;DHT22;998;49.906;10.908;2023-05-10T00:49:26;18.00;91.40
1994;DHT22;998;49.906;10.908;2023-05-10T00:51:54;18.00;92.00
1994;DHT22;998;49.906;10.908;2023-05-10T00:54:22;18.00;92.40
1994;DHT22;998;49.906;10.908;2023-05-10T00:56:51;18.10;93.10
1994;DHT22;998;49.906;10.908;2023-05-10T00:59:19;18.00;93.70
1994;DHT22;998;49.906;10.908;2023-05-10T01:01:47;17.80;94.40
1994;DHT22;998;49.906;10.908;2023-05-10T01:04:15;17.70;94.50
1994;DHT22;998;49.906;10.908;2023-05-10T01:06:42;17.70;94.90
1994;DHT22;998;49.906;10.908;2023-05-10T01:09:10;17.70;95.80
1994;DHT22;998;49.906;10.908;2023-05-10T01:11:39;17.70;96.50
1994;DHT22;998;49.906;10.908;2023-05-10T01:14:08;17.50;97.00
1994;DHT22;998;49.906;10.908;2023-05-10T01:16:38;17.30;97.80
1994;DHT22;998;49.906;10.908;2023-05-10T01:19:11;17.20;99.10
1994;DHT22;998;49.906;10.908;2023-05-10T01:21:48;17.10;99.80
1994;DHT22;998;49.906;10.908;2023-05-10T01:24:38;17.00;99.90
1994;DHT22;998;49.906;10.908;2023-05-10T01:27:20;17.00;99.90
1994;DHT22;998;49.906;10.908;2023-05-10T01:30:14;16.80;99.90
1994;DHT22;998;49.906;10.908;2023-05-10T01:32:52;16.80;99.90
1994;DHT22;998;49.906;10.908;2023-05-10T01:35:28;16.70;99.90
1994;DHT22;998;49.906;10.908;2023-05-10T01:38:04;16.70;99.90
1994;DHT22;998;49.906;10.908;2023-05-10T01:40:39;16.70;99.90
1994;DHT22;998;49.906;10.908;2023-05-10T01:43:14;16.60;99.90
1994;DHT22;998;49.906;10.908;2023-05-10T01:45:50;16.70;99.90
1994;DHT22;998;49.906;10.908;2023-05-10T01:48:21;16.60;99.90
1994;DHT22;998;49.906;10.908;2023-05-10T01:50:50;16.60;99.90
1994;DHT22;998;49.906;10.908;2023-05-10T01:53:19;16.50;99.90
1994;DHT22;998;49.906;10.908;2023-05-10T01:55:49;16.60;99.90
1994;DHT22;998;49.906;10.908;2023-05-10T01:58:20;16.50;99.90
1994;DHT22;998;49.906;10.908;2023-05-10T02:00:49;16.60;99.90
1994;DHT22;998;49.906;10.908;2023-05-10T02:03:20;16.60;99.90
1994;DHT22;998;49.906;10.908;2023-05-10T02:05:49;16.60;99.90
1994;DHT22;998;49.906;10.908;2023-05-10T02:08:17;16.60;99.90
1994;DHT22;998;49.906;10.908;2023-05-10T02:10:46;16.50;99.90
1994;DHT22;998;49.906;10.908;2023-05-10T02:13:16;16.50;99.90
1994;DHT22;998;49.906;10.908;2023-05-10T02:15:46;16.50;99.90
1994;DHT22;998;49.906;10.908;2023-05-10T02:18:16;16.70;99.90
1994;DHT22;998;49.906;10.908;2023-05-10T02:20:45;16.80;99.90
1994;DHT22;998;49.906;10.908;2023-05-10T02:23:14;16.90;99.90
1994;DHT22;998;49.906;10.908;2023-05-10T02:25:44;16.80;99.90
1994;DHT22;998;49.906;10.908;2023-05-10T02:28:12;16.80;99.90
1994;DHT22;998;49.906;10.908;2023-05-10T02:30:41;16.80;99.90
1994;DHT22;998;49.906;10.908;2023-05-10T02:33:10;16.80;99.90
1994;DHT22;998;49.906;10.908;2023-05-10T02:35:38;16.70;99.90
1994;DHT22;998;49.906;10.908;2023-05-10T02:38:07;16.70;99.90
1994;DHT22;998;49.906;10.908;2023-05-10T02:40:37;16.80;99.90
1994;DHT22;998;49.906;10.908;2023-05-10T02:43:06;16.90;99.90
1994;DHT22;998;49.906;10.908;2023-05-10T02:45:36;16.90;99.90
1994;DHT22;998;49.906;10.908;2023-05-10T02:48:05;16.80;99.90
1994;DHT22;998;49.906;10.908;2023-05-10T02:50:34;16.90;99.90
1994;DHT22;998;49.906;10.908;2023-05-10T02:53:09;16.70;99.90
1994;DHT22;998;49.906;10.908;2023-05-10T02:55:38;16.80;99.90
1994;DHT22;998;49.906;10.908;2023-05-10T02:58:07;16.70;99.90
1994;DHT22;998;49.906;10.908;2023-05-10T03:00:35;16.70;99.90
1994;DHT22;998;49.906;10.908;2023-05-10T03:03:02;16.50;99.90
1994;DHT22;998;49.906;10.908;2023-05-10T03:05:30;16.30;99.90
1994;DHT22;998;49.906;10.908;2023-05-10T03:07:57;16.20;99.90
1994;DHT22;998;49.906;10.908;2023-05-10T03:10:29;16.20;99.90
1994;DHT22;998;49.906;10.908;2023-05-10T03:13:07;16.20;99.90
1994;DHT22;998;49.906;10.908;2023-05-10T03:15:48;16.30;99.90
1994;DHT22;998;49.906;10.908;2023-05-10T03:18:22;16.30;99.90
1994;DHT22;998;49.906;10.908;2023-05-10T03:20:51;16.20;99.90
1994;DHT22;998;49.906;10.908;2023-05-10T03:23:27;16.20;99.90
1994;DHT22;998;49.906;10.908;2023-05-10T03:25:59;16.20;99.90
1994;DHT22;998;49.906;10.908;2023-05-10T03:28:28;16.30;99.90
1994;DHT22;998;49.906;10.908;2023-05-10T03:30:56;16.30;99.90
1994;DHT22;998;49.906;10.908;2023-05-10T03:33:24;16.40;99.90
1994;DHT22;998;49.906;10.908;2023-05-10T03:35:51;16.40;99.90
1994;DHT22;998;49.906;10.908;2023-05-10T03:38:19;16.50;99.90
1994;DHT22;998;49.906;10.908;2023-05-10T03:40:46;16.60;99.90
1994;DHT22;998;49.906;10.908;2023-05-10T03:43:15;16.60;99.90
1994;DHT22;998;49.906;10.908;2023-05-10T03:45:42;16.60;99.90
1994;DHT22;998;49.906;10.908;2023-05-10T03:48:10;16.60;99.90
1994;DHT22;998;49.906;10.908;2023-05-10T03:50:39;16.60;99.90
1994;DHT22;998;49.906;10.908;2023-05-10T03:53:06;16.70;99.90
1994;DHT22;998;49.906;10.908;2023-05-10T03:55:34;16.60;99.90
1994;DHT22;998;49.906;10.908;2023-05-10T03:58:02;16.70;99.90
1994;DHT22;998;49.906;10.908;2023-05-10T04:00:31;16.60;99.90
1994;DHT22;998;49.906;10.908;2023-05-10T04:02:58;16.50;99.90
1994;DHT22;998;49.906;10.908;2023-05-10T04:05:26;16.40;99.90
1994;DHT22;998;49.906;10.908;2023-05-10T04:07:53;16.50;99.90
1994;DHT22;998;49.906;10.908;2023-05-10T04:10:21;16.60;99.90
1994;DHT22;998;49.906;10.908;2023-05-10T04:12:48;16.50;99.90
1994;DHT22;998;49.906;10.908;2023-05-10T04:15:16;16.50;99.90
1994;DHT22;998;49.906;10.908;2023-05-10T04:17:45;16.40;99.90
1994;DHT22;998;49.906;10.908;2023-05-10T04:20:12;16.30;99.90
1994;DHT22;998;49.906;10.908;2023-05-10T04:22:40;16.40;99.90
1994;DHT22;998;49.906;10.908;2023-05-10T04:25:08;16.40;99.90
1994;DHT22;998;49.906;10.908;2023-05-10T04:27:35;16.20;99.90
1994;DHT22;998;49.906;10.908;2023-05-10T04:30:04;16.20;99.90
1994;DHT22;998;49.906;10.908;2023-05-10T04:32:31;16.30;99.90
1994;DHT22;998;49.906;10.908;2023-05-10T04:35:00;16.20;99.90
1994;DHT22;998;49.906;10.908;2023-05-10T04:37:29;16.30;99.90
1994;DHT22;998;49.906;10.908;2023-05-10T04:39:56;16.20;99.90
1994;DHT22;998;49.906;10.908;2023-05-10T04:42:25;16.20;99.90
1994;DHT22;998;49.906;10.908;2023-05-10T04:44:53;16.20;99.90
1994;DHT22;998;49.906;10.908;2023-05-10T04:47:20;16.20;99.90
1994;DHT22;998;49.906;10.908;2023-05-10T04:49:47;16.10;99.90
1994;DHT22;998;49.906;10.908;2023-05-10T04:52:16;16.10;99.90
1994;DHT22;998;49.906;10.908;2023-05-10T04:54:44;16.10;99.90
1994;DHT22;998;49.906;10.908;2023-05-10T04:57:11;16.10;99.90
1994;DHT22;998;49.906;10.908;2023-05-10T04:59:39;15.90;99.90
1994;DHT22;998;49.906;10.908;2023-05-10T05:02:06;15.90;99.90
1994;DHT22;998;49.906;10.908;2023-05-10T05:04:33;15.80;99.90
1994;DHT22;998;49.906;10.908;2023-05-10T05:07:01;15.80;99.90
1994;DHT22;998;49.906;10.908;2023-05-10T05:09:29;15.80;99.90
1994;DHT22;998;49.906;10.908;2023-05-10T05:11:57;15.80;99.90
1994;DHT22;998;49.906;10.908;2023-05-10T05:14:25;15.80;99.90
1994;DHT22;998;49.906;10.908;2023-05-10T05:16:52;15.80;99.90
1994;DHT22;998;49.906;10.908;2023-05-10T05:19:20;15.80;99.90
1994;DHT22;998;49.906;10.908;2023-05-10T05:21:48;15.80;99.90
1994;DHT22;998;49.906;10.908;2023-05-10T05:24:15;15.80;99.90
1994;DHT22;998;49.906;10.908;2023-05-10T05:26:44;15.80;99.90
1994;DHT22;998;49.906;10.908;2023-05-10T05:29:11;15.80;99.90
1994;DHT22;998;49.906;10.908;2023-05-10T05:31:39;15.90;99.90
1994;DHT22;998;49.906;10.908;2023-05-10T05:34:06;15.80;99.90
1994;DHT22;998;49.906;10.908;2023-05-10T05:36:36;15.90;99.90
1994;DHT22;998;49.906;10.908;2023-05-10T05:39:04;15.80;99.90
1994;DHT22;998;49.906;10.908;2023-05-10T05:41:31;15.80;99.90
1994;DHT22;998;49.906;10.908;2023-05-10T05:44:00;15.80;99.90
1994;DHT22;998;49.906;10.908;2023-05-10T05:46:28;15.80;99.90
1994;DHT22;998;49.906;10.908;2023-05-10T05:48:55;15.90;99.90
1994;DHT22;998;49.906;10.908;2023-05-10T05:51:22;15.90;99.90
1994;DHT22;998;49.906;10.908;2023-05-10T05:53:50;15.90;99.90
1994;DHT22;998;49.906;10.908;2023-05-10T05:56:17;15.90;99.90
1994;DHT22;998;49.906;10.908;2023-05-10T05:58:49;15.80;99.90
1994;DHT22;998;49.906;10.908;2023-05-10T06:01:18;15.90;99.90
1994;DHT22;998;49.906;10.908;2023-05-10T06:03:46;15.80;99.90
1994;DHT22;998;49.906;10.908;2023-05-10T06:06:13;15.90;99.90
1994;DHT22;998;49.906;10.908;2023-05-10T06:08:41;15.80;99.90
1994;DHT22;998;49.906;10.908;2023-05-10T06:11:08;15.80;99.90
1994;DHT22;998;49.906;10.908;2023-05-10T06:13:36;15.90;99.90
1994;DHT22;998;49.906;10.908;2023-05-10T06:16:03;15.80;99.90
1994;DHT22;998;49.906;10.908;2023-05-10T06:18:32;15.90;99.90
1994;DHT22;998;49.906;10.908;2023-05-10T06:21:00;15.90;99.90
1994;DHT22;998;49.906;10.908;2023-05-10T06:23:27;15.90;99.90
1994;DHT22;998;49.906;10.908;2023-05-10T06:25:55;15.80;99.90
1994;DHT22;998;49.906;10.908;2023-05-10T06:28:22;15.90;99.90
1994;DHT22;998;49.906;10.908;2023-05-10T06:30:50;15.90;99.90
1994;DHT22;998;49.906;10.908;2023-05-10T06:33:17;16.00;99.90
1994;DHT22;998;49.906;10.908;2023-05-10T06:35:46;15.80;99.90
1994;DHT22;998;49.906;10.908;2023-05-10T06:38:13;15.90;99.90
1994;DHT22;998;49.906;10.908;2023-05-10T06:40:41;15.90;99.90
1994;DHT22;998;49.906;10.908;2023-05-10T06:43:09;15.80;99.90
1994;DHT22;998;49.906;10.908;2023-05-10T06:45:37;15.80;99.90
1994;DHT22;998;49.906;10.908;2023-05-10T06:48:04;15.90;99.90
1994;DHT22;998;49.906;10.908;2023-05-10T06:50:32;15.90;99.90
1994;DHT22;998;49.906;10.908;2023-05-10T06:53:01;15.90;99.90
1994;DHT22;998;49.906;10.908;2023-05-10T06:55:28;16.00;99.90
1994;DHT22;998;49.906;10.908;2023-05-10T06:57:56;16.00;99.90
1994;DHT22;998;49.906;10.908;2023-05-10T07:00:23;16.10;99.90
1994;DHT22;998;49.906;10.908;2023-05-10T07:02:51;16.10;99.90
1994;DHT22;998;49.906;10.908;2023-05-10T07:05:19;16.10;99.90
1994;DHT22;998;49.906;10.908;2023-05-10T07:07:46;16.10;99.90
1994;DHT22;998;49.906;10.908;2023-05-10T07:10:15;16.20;99.90
1994;DHT22;998;49.906;10.908;2023-05-10T07:12:43;16.20;99.90
1994;DHT22;998;49.906;10.908;2023-05-10T07:15:11;16.20;99.90
1994;DHT22;998;49.906;10.908;2023-05-10T07:17:38;16.20;99.90
1994;DHT22;998;49.906;10.908;2023-05-10T07:20:07;16.20;99.90
1994;DHT22;998;49.906;10.908;2023-05-10T07:22:34;16.20;99.90
1994;DHT22;998;49.906;10.908;2023-05-10T07:25:02;16.20;99.90
1994;DHT22;998;49.906;10.908;2023-05-10T07:27:31;16.30;99.90
1994;DHT22;998;49.906;10.908;2023-05-10T07:29:58;16.30;99.90
1994;DHT22;998;49.906;10.908;2023-05-10T07:32:26;16.30;99.90
1994;DHT22;998;49.906;10.908;2023-05-10T07:34:53;16.20;99.90
1994;DHT22;998;49.906;10.908;2023-05-10T07:37:21;16.20;99.90
1994;DHT22;998;49.906;10.908;2023-05-10T07:39:48;16.20;99.90
1994;DHT22;998;49.906;10.908;2023-05-10T07:42:15;16.20;99.90
1994;DHT22;998;49.906;10.908;2023-05-10T07:44:44;16.30;99.90
1994;DHT22;998;49.906;10.908;2023-05-10T07:47:12;16.30;99.90
1994;DHT22;998;49.906;10.908;2023-05-10T07:49:40;16.40;99.90
1994;DHT22;998;49.906;10.908;2023-05-10T07:52:07;16.40;99.90
1994;DHT22;998;49.906;10.908;2023-05-10T07:54:35;16.50;99.90
1994;DHT22;998;49.906;10.908;2023-05-10T07:57:03;16.40;99.90
1994;DHT22;998;49.906;10.908;2023-05-10T07:59:30;16.50;99.90
1994;DHT22;998;49.906;10.908;2023-05-10T08:02:00;16.50;99.90
1994;DHT22;998;49.906;10.908;2023-05-10T08:04:27;16.40;99.90
1994;DHT22;998;49.906;10.908;2023-05-10T08:06:54;16.40;99.90
1994;DHT22;998;49.906;10.908;2023-05-10T08:09:21;16.30;99.90
1994;DHT22;998;49.906;10.908;2023-05-10T08:11:49;16.30;99.90
1994;DHT22;998;49.906;10.908;2023-05-10T08:14:17;16.40;99.90
1994;DHT22;998;49.906;10.908;2023-05-10T08:16:44;16.40;99.90
1994;DHT22;998;49.906;10.908;2023-05-10T08:19:13;16.30;99.90
1994;DHT22;998;49.906;10.908;2023-05-10T08:21:44;16.30;99.90
1994;DHT22;998;49.906;10.908;2023-05-10T08:24:12;16.30;99.90
1994;DHT22;998;49.906;10.908;2023-05-10T08:26:39;16.30;99.90
1994;DHT22;998;49.906;10.908;2023-05-10T08:29:07;16.30;99.90
1994;DHT22;998;49.906;10.908;2023-05-10T08:31:34;16.30;99.90
1994;DHT22;998;49.906;10.908;2023-05-10T08:34:01;16.40;99.90
1994;DHT22;998;49.906;10.908;2023-05-10T08:36:30;16.50;99.90
1994;DHT22;998;49.906;10.908;2023-05-10T08:38:58;16.50;99.90
1994;DHT22;998;49.906;10.908;2023-05-10T08:41:25;16.50;99.90
1994;DHT22;998;49.906;10.908;2023-05-10T08:43:53;16.50;99.90
1994;DHT22;998;49.906;10.908;2023-05-10T08:46:22;16.50;99.90
1994;DHT22;998;49.906;10.908;2023-05-10T08:48:51;16.50;99.90
1994;DHT22;998;49.906;10.908;2023-05-10T08:51:19;16.50;99.90
1994;DHT22;998;49.906;10.908;2023-05-10T08:53:48;16.60;99.90
1994;DHT22;998;49.906;10.908;2023-05-10T08:56:16;16.60;99.90
1994;DHT22;998;49.906;10.908;2023-05-10T08:58:44;16.60;99.90
1994;DHT22;998;49.906;10.908;2023-05-10T09:01:13;16.70;99.90
1994;DHT22;998;49.906;10.908;2023-05-10T09:03:40;16.70;99.90
1994;DHT22;998;49.906;10.908;2023-05-10T09:06:07;16.60;99.90
1994;DHT22;998;49.906;10.908;2023-05-10T09:08:36;16.60;99.90
1994;DHT22;998;49.906;10.908;2023-05-10T09:11:06;16.60;99.90
1994;DHT22;998;49.906;10.908;2023-05-10T09:13:34;16.60;99.90
1994;DHT22;998;49.906;10.908;2023-05-10T09:16:03;16.60;99.90
1994;DHT22;998;49.906;10.908;2023-05-10T09:18:33;16.60;99.90
1994;DHT22;998;49.906;10.908;2023-05-10T09:21:05;16.60;99.90
1994;DHT22;998;49.906;10.908;2023-05-10T09:23:35;16.60;99.90
1994;DHT22;998;49.906;10.908;2023-05-10T09:26:08;16.60;99.90
1994;DHT22;998;49.906;10.908;2023-05-10T09:28:51;16.60;99.90
1994;DHT22;998;49.906;10.908;2023-05-10T09:31:19;16.60;99.90
1994;DHT22;998;49.906;10.908;2023-05-10T09:33:47;16.60;99.90
1994;DHT22;998;49.906;10.908;2023-05-10T09:36:15;16.60;99.90
1994;DHT22;998;49.906;10.908;2023-05-10T09:38:46;16.60;99.90
1994;DHT22;998;49.906;10.908;2023-05-10T09:41:20;16.60;99.90
1994;DHT22;998;49.906;10.908;2023-05-10T09:43:48;16.70;99.90
1994;DHT22;998;49.906;10.908;2023-05-10T09:46:15;16.70;99.90
1994;DHT22;998;49.906;10.908;2023-05-10T09:48:44;16.80;99.90
1994;DHT22;998;49.906;10.908;2023-05-10T09:51:19;16.80;99.90
1994;DHT22;998;49.906;10.908;2023-05-10T09:53:46;16.90;99.90
1994;DHT22;998;49.906;10.908;2023-05-10T09:56:33;16.90;99.90
1994;DHT22;998;49.906;10.908;2023-05-10T09:59:04;17.00;99.90
1994;DHT22;998;49.906;10.908;2023-05-10T10:01:31;16.90;99.90
1994;DHT22;998;49.906;10.908;2023-05-10T10:03:58;16.90;99.90
1994;DHT22;998;49.906;10.908;2023-05-10T10:06:26;16.90;99.90
1994;DHT22;998;49.906;10.908;2023-05-10T10:08:54;16.90;99.90
1994;DHT22;998;49.906;10.908;2023-05-10T10:11:23;17.00;99.90
1994;DHT22;998;49.906;10.908;2023-05-10T10:13:51;17.10;99.90
1994;DHT22;998;49.906;10.908;2023-05-10T10:16:20;17.10;99.90
1994;DHT22;998;49.906;10.908;2023-05-10T10:18:47;17.20;99.90
1994;DHT22;998;49.906;10.908;2023-05-10T10:21:15;17.20;99.90
1994;DHT22;998;49.906;10.908;2023-05-10T10:23:43;17.30;99.90
1994;DHT22;998;49.906;10.908;2023-05-10T10:26:11;17.30;99.90
1994;DHT22;998;49.906;10.908;2023-05-10T10:28:48;17.40;99.90
1994;DHT22;998;49.906;10.908;2023-05-10T10:31:23;17.30;99.90
1994;DHT22;998;49.906;10.908;2023-05-10T10:34:00;17.20;99.90
1994;DHT22;998;49.906;10.908;2023-05-10T10:36:29;17.10;99.90
1994;DHT22;998;49.906;10.908;2023-05-10T10:39:00;17.00;99.90
1994;DHT22;998;49.906;10.908;2023-05-10T10:41:33;17.00;99.90
1994;DHT22;998;49.906;10.908;2023-05-10T10:44:25;17.00;99.90
1994;DHT22;998;49.906;10.908;2023-05-10T10:47:00;17.10;99.90
1994;DHT22;998;49.906;10.908;2023-05-10T10:49:29;17.20;99.90
1994;DHT22;998;49.906;10.908;2023-05-10T10:52:14;17.30;99.90
1994;DHT22;998;49.906;10.908;2023-05-10T10:54:45;17.40;99.90
1994;DHT22;998;49.906;10.908;2023-05-10T10:57:14;17.40;99.90
1994;DHT22;998;49.906;10.908;2023-05-10T10:59:43;17.50;99.90
1994;DHT22;998;49.906;10.908;2023-05-10T11:02:33;17.40;99.90
1994;DHT22;998;49.906;10.908;2023-05-10T11:05:24;17.40;99.90
1994;DHT22;998;49.906;10.908;2023-05-10T11:07:53;17.40;99.90
1994;DHT22;998;49.906;10.908;2023-05-10T11:10:21;17.40;99.90
1994;DHT22;998;49.906;10.908;2023-05-10T11:12:52;17.30;99.90
1994;DHT22;998;49.906;10.908;2023-05-10T11:15:28;17.30;99.90
1994;DHT22;998;49.906;10.908;2023-05-10T11:17:56;17.30;99.90
1994;DHT22;998;49.906;10.908;2023-05-10T11:20:24;17.30;99.90
1994;DHT22;998;49.906;10.908;2023-05-10T11:23:11;17.30;99.90
1994;DHT22;998;49.906;10.908;2023-05-10T11:25:42;17.30;99.90
1994;DHT22;998;49.906;10.908;2023-05-10T11:28:11;17.30;99.90
1994;DHT22;998;49.906;10.908;2023-05-10T11:30:41;17.40;99.90
1994;DHT22;998;49.906;10.908;2023-05-10T11:33:15;17.50;99.90
1994;DHT22;998;49.906;10.908;2023-05-10T11:35:43;17.50;99.90
1994;DHT22;998;49.906;10.908;2023-05-10T11:38:11;17.50;99.90
1994;DHT22;998;49.906;10.908;2023-05-10T11:40:40;17.60;99.90
1994;DHT22;998;49.906;10.908;2023-05-10T11:43:09;17.70;99.90
1994;DHT22;998;49.906;10.908;2023-05-10T11:45:37;17.70;99.90
1994;DHT22;998;49.906;10.908;2023-05-10T11:48:06;17.70;99.90
1994;DHT22;998;49.906;10.908;2023-05-10T11:50:33;17.70;99.90
1994;DHT22;998;49.906;10.908;2023-05-10T11:53:00;17.70;99.90
1994;DHT22;998;49.906;10.908;2023-05-10T11:55:28;17.70;99.90
1994;DHT22;998;49.906;10.908;2023-05-10T11:58:01;17.70;99.90
1994;DHT22;998;49.906;10.908;2023-05-10T12:00:30;17.70;99.90
1994;DHT22;998;49.906;10.908;2023-05-10T12:02:59;17.70;99.90
1994;DHT22;998;49.906;10.908;2023-05-10T12:05:32;17.70;99.90
1994;DHT22;998;49.906;10.908;2023-05-10T12:08:13;17.80;99.90
1994;DHT22;998;49.906;10.908;2023-05-10T12:10:41;17.80;99.90
1994;DHT22;998;49.906;10.908;2023-05-10T12:13:11;17.80;99.90
1994;DHT22;998;49.906;10.908;2023-05-10T12:15:39;17.80;99.90
1994;DHT22;998;49.906;10.908;2023-05-10T12:18:08;17.80;99.90
1994;DHT22;998;49.906;10.908;2023-05-10T12:20:38;17.90;99.90
1994;DHT22;998;49.906;10.908;2023-05-10T12:23:07;17.90;99.90
1994;DHT22;998;49.906;10.908;2023-05-10T12:25:37;18.00;99.90
1994;DHT22;998;49.906;10.908;2023-05-10T12:28:08;18.00;99.90
1994;DHT22;998;49.906;10.908;2023-05-10T12:30:36;17.90;99.90
1994;DHT22;998;49.906;10.908;2023-05-10T12:33:08;18.10;99.90
1994;DHT22;998;49.906;10.908;2023-05-10T12:35:46;18.30;99.90
1994;DHT22;998;49.906;10.908;2023-05-10T12:38:25;18.40;99.90
1994;DHT22;998;49.906;10.908;2023-05-10T12:40:55;18.40;99.90
1994;DHT22;998;49.906;10.908;2023-05-10T12:43:23;18.40;99.90
1994;DHT22;998;49.906;10.908;2023-05-10T12:45:50;18.40;99.90
1994;DHT22;998;49.906;10.908;2023-05-10T12:48:18;18.40;99.90
1994;DHT22;998;49.906;10.908;2023-05-10T12:50:47;18.30;99.90
1994;DHT22;998;49.906;10.908;2023-05-10T12:53:15;18.30;99.90
1994;DHT22;998;49.906;10.908;2023-05-10T12:55:42;18.30;99.90
1994;DHT22;998;49.906;10.908;2023-05-10T12:58:09;18.30;99.90
1994;DHT22;998;49.906;10.908;2023-05-10T13:00:36;18.20;99.90
1994;DHT22;998;49.906;10.908;2023-05-10T13:03:04;18.20;99.90
1994;DHT22;998;49.906;10.908;2023-05-10T13:05:32;18.20;99.90
1994;DHT22;998;49.906;10.908;2023-05-10T13:08:01;18.20;99.90
1994;DHT22;998;49.906;10.908;2023-05-10T13:10:29;18.20;99.90
1994;DHT22;998;49.906;10.908;2023-05-10T13:12:57;18.20;99.90
1994;DHT22;998;49.906;10.908;2023-05-10T13:15:25;18.30;99.90
1994;DHT22;998;49.906;10.908;2023-05-10T13:17:53;18.30;99.90
1994;DHT22;998;49.906;10.908;2023-05-10T13:20:21;18.30;99.90
1994;DHT22;998;49.906;10.908;2023-05-10T13:22:48;18.30;99.90
1994;DHT22;998;49.906;10.908;2023-05-10T13:25:17;18.30;99.90
1994;DHT22;998;49.906;10.908;2023-05-10T13:27:44;18.40;99.90
1994;DHT22;998;49.906;10.908;2023-05-10T13:30:12;18.60;99.90
1994;DHT22;998;49.906;10.908;2023-05-10T13:32:40;18.90;99.90
1994;DHT22;998;49.906;10.908;2023-05-10T13:35:07;19.10;99.90
1994;DHT22;998;49.906;10.908;2023-05-10T13:37:35;19.40;99.90
1994;DHT22;998;49.906;10.908;2023-05-10T13:40:03;19.50;99.90
1994;DHT22;998;49.906;10.908;2023-05-10T13:42:33;19.30;99.90
1994;DHT22;998;49.906;10.908;2023-05-10T13:45:01;19.10;99.90
1994;DHT22;998;49.906;10.908;2023-05-10T13:47:28;18.80;99.90
1994;DHT22;998;49.906;10.908;2023-05-10T13:49:56;18.70;99.90
1994;DHT22;998;49.906;10.908;2023-05-10T13:52:23;18.60;99.90
1994;DHT22;998;49.906;10.908;2023-05-10T13:54:51;18.50;99.90
1994;DHT22;998;49.906;10.908;2023-05-10T13:57:20;18.60;99.90
1994;DHT22;998;49.906;10.908;2023-05-10T13:59:50;18.50;99.90
1994;DHT22;998;49.906;10.908;2023-05-10T14:02:18;18.50;99.90
1994;DHT22;998;49.906;10.908;2023-05-10T14:04:45;18.30;99.90
1994;DHT22;998;49.906;10.908;2023-05-10T14:07:14;18.20;99.90
1994;DHT22;998;49.906;10.908;2023-05-10T14:09:41;18.10;99.90
1994;DHT22;998;49.906;10.908;2023-05-10T14:12:08;18.10;99.90
1994;DHT22;998;49.906;10.908;2023-05-10T14:14:36;18.10;99.90
1994;DHT22;998;49.906;10.908;2023-05-10T14:17:05;18.00;99.90
1994;DHT22;998;49.906;10.908;2023-05-10T14:19:32;18.10;99.90
1994;DHT22;998;49.906;10.908;2023-05-10T14:21:59;18.10;99.90
1994;DHT22;998;49.906;10.908;2023-05-10T14:24:27;18.20;99.90
1994;DHT22;998;49.906;10.908;2023-05-10T14:26:54;18.20;99.90
1994;DHT22;998;49.906;10.908;2023-05-10T14:29:21;18.20;99.90
1994;DHT22;998;49.906;10.908;2023-05-10T14:31:49;18.20;99.90
1994;DHT22;998;49.906;10.908;2023-05-10T14:34:18;18.20;99.90
1994;DHT22;998;49.906;10.908;2023-05-10T14:36:45;18.20;99.90
1994;DHT22;998;49.906;10.908;2023-05-10T14:39:13;18.20;99.90
1994;DHT22;998;49.906;10.908;2023-05-10T14:41:40;18.10;99.90
1994;DHT22;998;49.906;10.908;2023-05-10T14:44:08;18.20;99.90
1994;DHT22;998;49.906;10.908;2023-05-10T14:46:36;18.20;99.90
1994;DHT22;998;49.906;10.908;2023-05-10T14:49:04;18.20;99.90
1994;DHT22;998;49.906;10.908;2023-05-10T14:51:33;18.20;99.90
1994;DHT22;998;49.906;10.908;2023-05-10T15:12:13;18.00;99.90
1994;DHT22;998;49.906;10.908;2023-05-10T15:14:40;17.70;99.90
1994;DHT22;998;49.906;10.908;2023-05-10T15:17:07;17.60;99.90
1994;DHT22;998;49.906;10.908;2023-05-10T15:19:35;17.50;99.90
1994;DHT22;998;49.906;10.908;2023-05-10T15:22:03;17.50;99.90
1994;DHT22;998;49.906;10.908;2023-05-10T15:24:30;17.40;99.90
1994;DHT22;998;49.906;10.908;2023-05-10T15:26:57;17.40;99.90
1994;DHT22;998;49.906;10.908;2023-05-10T15:29:25;17.30;99.90
1994;DHT22;998;49.906;10.908;2023-05-10T15:31:52;17.20;99.90
1994;DHT22;998;49.906;10.908;2023-05-10T15:34:19;17.20;99.90
1994;DHT22;998;49.906;10.908;2023-05-10T15:36:47;17.20;99.90
1994;DHT22;998;49.906;10.908;2023-05-10T15:39:14;17.20;99.90
1994;DHT22;998;49.906;10.908;2023-05-10T15:41:41;17.10;99.90
1994;DHT22;998;49.906;10.908;2023-05-10T15:44:08;17.20;99.90
1994;DHT22;998;49.906;10.908;2023-05-10T15:46:38;17.10;99.90
1994;DHT22;998;49.906;10.908;2023-05-10T15:49:05;17.10;99.90
1994;DHT22;998;49.906;10.908;2023-05-10T15:51:32;17.10;99.90
1994;DHT22;998;49.906;10.908;2023-05-10T15:54:00;17.10;99.90
1994;DHT22;998;49.906;10.908;2023-05-10T15:56:28;17.10;99.90
1994;DHT22;998;49.906;10.908;2023-05-10T15:58:56;17.10;99.90
1994;DHT22;998;49.906;10.908;2023-05-10T16:01:23;17.10;99.90
1994;DHT22;998;49.906;10.908;2023-05-10T16:03:51;17.10;99.90
1994;DHT22;998;49.906;10.908;2023-05-10T16:06:19;17.10;99.90
1994;DHT22;998;49.906;10.908;2023-05-10T16:08:46;17.00;99.90
1994;DHT22;998;49.906;10.908;2023-05-10T16:11:14;17.00;99.90
1994;DHT22;998;49.906;10.908;2023-05-10T16:13:41;17.00;99.90
1994;DHT22;998;49.906;10.908;2023-05-10T16:16:08;16.90;99.90
1994;DHT22;998;49.906;10.908;2023-05-10T16:18:36;16.90;99.90
1994;DHT22;998;49.906;10.908;2023-05-10T16:21:05;16.90;99.90
1994;DHT22;998;49.906;10.908;2023-05-10T16:23:33;16.90;99.90
1994;DHT22;998;49.906;10.908;2023-05-10T16:26:00;17.00;99.90
1994;DHT22;998;49.906;10.908;2023-05-10T16:28:28;16.90;99.90
1994;DHT22;998;49.906;10.908;2023-05-10T16:30:55;17.00;99.90